KHUL/HUL METAR and TAF weather

Enter ICAO airport designator
Station Type Date Time Source
KHUL METAR 2021/09/27 06:53 UTC NOAA

KHUL 270653Z AUTO 20004KT 10SM CLR 09/08 A2971 RMK AO2 SLP062 T00940078


Station Type Date Time Source
KHUL Decoded METAR 2021/09/27 06:53 UTC NOAA

HOULTON INT'L AIRPORT, ME, United States (KHUL) 46-07N 067-48W 150M
Sep 27, 2021 - 02:53 AM EDT / 2021.09.27 0653 UTC
Wind: from the SSW (200 degrees) at 5 MPH (4 KT):0
Visibility: 10 mile(s):0
Sky conditions: clear
Temperature: 48.9 F (9.4 C)
Dew Point: 46.0 F (7.8 C)
Relative Humidity: 89%
Pressure (altimeter): 29.71 in. Hg (1006 hPa)
ob: KHUL 270653Z AUTO 20004KT 10SM CLR 09/08 A2971 RMK AO2 SLP062 T00940078
cycle: 7

Station Type Date Time Source
KHUL TAF 2021/09/27 06:22 UTC NOAA

TAF KHUL 270520Z 2706/2806 25007KT P6SM FEW100
FM271700 23009G20KT P6SM SCT060
FM272300 21007KT P6SM VCSH BKN040
FM280000 21006KT 5SM -SHRA SCT010 BKN020

Example: see airport list